createdAt,value
2018-12-31T00:03:31.156Z,101523.91
2018-12-31T00:14:22.158Z,101531.77
2018-12-31T00:19:40.626Z,101531.11
2018-12-31T00:24:59.111Z,101525.64
2018-12-31T00:30:17.583Z,101533.41
2018-12-31T00:35:36.071Z,101535.86
2018-12-31T00:40:54.670Z,101539.28
2018-12-31T00:46:13.155Z,101538.40
2018-12-31T00:51:31.622Z,101559.65
2018-12-31T00:56:50.161Z,101549.69
2018-12-31T01:07:39.092Z,101558.77
2018-12-31T01:12:57.556Z,101559.80
2018-12-31T01:18:16.100Z,101555.70
2018-12-31T01:23:34.579Z,101554.25
2018-12-31T01:28:53.203Z,101563.27
2018-12-31T01:34:11.684Z,101560.02
2018-12-31T01:39:30.163Z,101555.11
2018-12-31T01:44:48.701Z,101551.50
2018-12-31T01:55:37.703Z,101551.86
2018-12-31T02:00:56.185Z,101555.82
2018-12-31T02:11:47.192Z,101575.30
2018-12-31T02:17:05.822Z,101581.19
2018-12-31T02:22:24.662Z,101575.84
2018-12-31T02:27:43.131Z,101579.94
2018-12-31T02:33:01.605Z,101569.13
2018-12-31T02:38:20.073Z,101549.02
2018-12-31T02:43:38.554Z,101534.75
2018-12-31T02:48:57.017Z,101534.02
2018-12-31T02:59:46.243Z,101552.53
2018-12-31T03:05:45.712Z,101554.98
2018-12-31T03:11:04.261Z,101558.89
2018-12-31T03:16:22.901Z,101552.69
2018-12-31T03:21:41.345Z,101547.19
2018-12-31T03:26:59.889Z,101544.46
2018-12-31T03:32:18.378Z,101543.22
2018-12-31T03:37:36.834Z,101539.47
2018-12-31T03:42:55.370Z,101530.05
2018-12-31T03:48:13.920Z,101525.78
2018-12-31T03:53:32.397Z,101529.21
2018-12-31T04:04:23.255Z,101527.64
2018-12-31T04:10:01.347Z,101529.19
2018-12-31T04:15:19.961Z,101526.97
2018-12-31T04:20:38.506Z,101533.77
2018-12-31T04:25:56.983Z,101531.72
2018-12-31T04:31:15.459Z,101534.02
2018-12-31T04:36:33.939Z,101526.92
2018-12-31T04:41:52.490Z,101521.52
2018-12-31T04:47:11.033Z,101532.16
2018-12-31T04:52:29.875Z,101535.45
2018-12-31T04:57:48.660Z,101531.00
2018-12-31T05:03:26.475Z,101524.46
2018-12-31T05:08:44.952Z,101524.46
2018-12-31T05:14:03.410Z,101537.06
2018-12-31T05:19:21.885Z,101524.38
2018-12-31T05:24:40.350Z,101530.70
2018-12-31T05:29:58.824Z,101532.86
2018-12-31T05:35:37.076Z,101531.59
2018-12-31T05:40:55.554Z,101531.59
2018-12-31T05:46:14.037Z,101542.84
2018-12-31T05:51:32.663Z,101548.27
2018-12-31T05:56:51.213Z,101549.27
2018-12-31T06:02:09.759Z,101556.06
2018-12-31T06:07:28.239Z,101564.25
2018-12-31T06:12:46.722Z,101564.41
2018-12-31T06:18:05.202Z,101568.03
2018-12-31T06:23:23.691Z,101559.68
2018-12-31T06:34:15.089Z,101562.68
2018-12-31T06:39:33.563Z,101572.84
2018-12-31T06:44:52.049Z,101569.70
2018-12-31T06:50:10.516Z,101572.48
2018-12-31T06:55:28.987Z,101586.38
2018-12-31T07:00:47.468Z,101587.03
2018-12-31T07:06:05.944Z,101594.67
2018-12-31T07:11:24.418Z,101605.61
2018-12-31T07:16:42.888Z,101612.22
2018-12-31T07:22:01.366Z,101618.67
2018-12-31T07:27:19.845Z,101620.00
2018-12-31T07:32:38.412Z,101639.00
2018-12-31T07:37:56.950Z,101634.13
2018-12-31T07:43:15.433Z,101634.77
2018-12-31T07:48:33.920Z,101629.48
2018-12-31T07:53:52.461Z,101623.67
2018-12-31T07:59:10.932Z,101635.93
2018-12-31T08:04:29.481Z,101647.83
2018-12-31T08:09:48.113Z,101659.48
2018-12-31T08:15:46.944Z,101662.97
2018-12-31T08:21:05.494Z,101670.20
2018-12-31T08:26:24.258Z,101670.55
2018-12-31T08:31:42.741Z,101668.65
2018-12-31T08:37:01.252Z,101666.70
2018-12-31T08:42:19.794Z,101678.42
2018-12-31T08:47:38.275Z,101675.62
2018-12-31T08:52:56.746Z,101675.22
2018-12-31T08:58:15.223Z,101680.65
2018-12-31T09:03:33.712Z,101675.00
2018-12-31T09:08:52.281Z,101685.64
2018-12-31T09:14:10.868Z,101679.81
2018-12-31T09:19:29.336Z,101684.00
2018-12-31T09:24:47.886Z,101690.52
2018-12-31T09:30:06.497Z,101681.90
2018-12-31T09:35:25.402Z,101683.55
2018-12-31T09:40:43.852Z,101674.50
2018-12-31T09:46:02.397Z,101679.31
2018-12-31T09:51:20.862Z,101681.18
2018-12-31T09:56:39.337Z,101675.91
2018-12-31T10:01:57.797Z,101684.13
2018-12-31T10:07:16.766Z,101683.53
2018-12-31T10:12:35.239Z,101686.50
2018-12-31T10:23:50.871Z,101692.86
2018-12-31T10:29:09.355Z,101694.73
2018-12-31T10:34:29.727Z,101693.47
2018-12-31T10:39:48.236Z,101693.28
2018-12-31T10:45:26.064Z,101695.57
2018-12-31T10:50:44.605Z,101695.57
2018-12-31T10:56:03.076Z,101692.86
2018-12-31T11:01:21.555Z,101694.00
2018-12-31T11:06:40.103Z,101690.77
2018-12-31T11:11:58.587Z,101681.86
2018-12-31T11:17:17.579Z,101679.39
2018-12-31T11:22:36.058Z,101675.78
2018-12-31T11:27:54.526Z,101677.77
2018-12-31T11:33:32.340Z,101672.70
2018-12-31T11:38:50.812Z,101665.78
2018-12-31T11:44:09.291Z,101664.54
2018-12-31T11:49:27.758Z,101660.20
2018-12-31T11:54:46.494Z,101646.66
2018-12-31T12:00:44.867Z,101644.55
2018-12-31T12:06:03.340Z,101643.72
2018-12-31T12:11:21.885Z,101633.67
2018-12-31T12:16:40.428Z,101626.08
2018-12-31T12:22:00.634Z,101634.39
2018-12-31T12:27:19.178Z,101624.64
2018-12-31T12:32:37.661Z,101622.18
2018-12-31T12:37:56.125Z,101628.36
2018-12-31T12:43:14.600Z,101631.72
2018-12-31T12:48:33.081Z,101629.20
2018-12-31T12:53:51.699Z,101638.35
2018-12-31T12:59:12.141Z,101625.91
2018-12-31T13:04:30.613Z,101630.50
2018-12-31T13:09:49.167Z,101636.50
2018-12-31T13:15:07.709Z,101648.17
2018-12-31T13:20:26.248Z,101632.55
2018-12-31T13:25:44.795Z,101634.04
2018-12-31T13:31:03.381Z,101636.56
2018-12-31T13:36:25.191Z,101627.69
2018-12-31T13:41:43.775Z,101621.16
2018-12-31T13:52:32.771Z,101623.72
2018-12-31T13:57:53.028Z,101621.91
2018-12-31T14:03:17.235Z,101626.37
2018-12-31T14:08:32.070Z,101624.52
2018-12-31T14:14:04.402Z,101620.95
2018-12-31T14:19:22.893Z,101624.16
2018-12-31T14:25:02.549Z,101625.53
2018-12-31T14:30:21.026Z,101625.53
2018-12-31T14:35:45.706Z,101628.05
2018-12-31T14:40:59.765Z,101634.98
2018-12-31T14:46:20.053Z,101634.94
2018-12-31T14:51:38.534Z,101639.22
2018-12-31T14:56:57.004Z,101638.94
2018-12-31T15:02:15.566Z,101643.08
2018-12-31T15:07:34.184Z,101645.55
2018-12-31T15:12:52.663Z,101647.30
2018-12-31T15:18:11.359Z,101642.05
2018-12-31T15:23:29.947Z,101642.63
2018-12-31T15:28:48.612Z,101656.40
2018-12-31T15:34:26.498Z,101653.70
2018-12-31T15:39:44.991Z,101661.63
2018-12-31T15:45:45.697Z,101663.73
2018-12-31T15:51:04.234Z,101662.84
2018-12-31T15:56:22.893Z,101657.48
2018-12-31T16:01:41.437Z,101662.59
2018-12-31T16:12:32.423Z,101666.95
2018-12-31T16:17:52.623Z,101664.59
2018-12-31T16:23:11.164Z,101660.92
2018-12-31T16:28:29.759Z,101664.47
2018-12-31T16:33:48.233Z,101653.87
2018-12-31T16:39:46.605Z,101651.30
2018-12-31T16:45:45.794Z,101651.77
2018-12-31T16:51:04.450Z,101657.98
2018-12-31T16:56:23.231Z,101652.93
2018-12-31T17:01:41.709Z,101655.28
2018-12-31T17:07:00.255Z,101660.09
2018-12-31T17:12:18.721Z,101663.03
2018-12-31T17:17:37.204Z,101656.89
2018-12-31T17:28:26.194Z,101659.00
2018-12-31T17:33:44.671Z,101655.49
2018-12-31T17:39:03.370Z,101647.81
2018-12-31T17:44:21.840Z,101652.88
2018-12-31T17:55:10.953Z,101657.14
2018-12-31T18:00:29.423Z,101650.81
2018-12-31T18:05:47.980Z,101647.02
2018-12-31T18:11:06.511Z,101655.44
2018-12-31T18:16:24.988Z,101650.98
2018-12-31T18:27:14.053Z,101661.70
2018-12-31T18:32:32.528Z,101670.14
2018-12-31T18:37:51.014Z,101660.27
2018-12-31T18:43:09.561Z,101661.95
2018-12-31T18:48:28.103Z,101661.75
2018-12-31T18:53:46.724Z,101667.85
2018-12-31T18:59:05.276Z,101664.34
2018-12-31T19:04:23.814Z,101674.15
2018-12-31T19:09:44.439Z,101673.53
2018-12-31T19:15:03.421Z,101675.15
2018-12-31T19:20:21.885Z,101684.53
2018-12-31T19:25:40.364Z,101672.08
2018-12-31T19:30:58.891Z,101673.11
2018-12-31T19:36:17.441Z,101670.73
2018-12-31T19:41:36.054Z,101672.08
2018-12-31T19:46:54.539Z,101666.08
2018-12-31T19:52:13.026Z,101662.79
2018-12-31T19:57:31.580Z,101653.28
2018-12-31T20:02:50.059Z,101648.57
2018-12-31T20:08:08.538Z,101652.54
2018-12-31T20:13:27.005Z,101654.54
2018-12-31T20:18:47.234Z,101634.70
2018-12-31T20:24:05.851Z,101624.67
2018-12-31T20:29:24.379Z,101623.45
2018-12-31T20:34:42.869Z,101609.09
2018-12-31T20:40:01.431Z,101591.83
2018-12-31T20:45:19.971Z,101600.13
2018-12-31T20:50:40.312Z,101603.19
2018-12-31T20:55:58.851Z,101607.81
2018-12-31T21:01:17.622Z,101605.84
2018-12-31T21:06:36.094Z,101600.66
2018-12-31T21:11:54.693Z,101598.84
2018-12-31T21:17:13.170Z,101584.66
2018-12-31T21:28:04.568Z,101570.38
2018-12-31T21:33:23.078Z,101577.30
2018-12-31T21:38:41.880Z,101568.80
2018-12-31T21:44:00.342Z,101563.64
2018-12-31T21:49:18.807Z,101564.60
2018-12-31T21:54:37.345Z,101559.96
2018-12-31T21:59:55.825Z,101556.97
2018-12-31T22:05:33.709Z,101565.86
2018-12-31T22:10:52.270Z,101582.13
2018-12-31T22:16:10.887Z,101576.73
2018-12-31T22:21:29.412Z,101576.48
2018-12-31T22:26:47.996Z,101574.84
2018-12-31T22:32:06.751Z,101577.38
2018-12-31T22:37:25.218Z,101573.00
2018-12-31T22:48:16.236Z,101559.59
2018-12-31T22:53:34.780Z,101551.05
2018-12-31T22:58:53.327Z,101545.41
2018-12-31T23:04:11.914Z,101543.05
2018-12-31T23:09:30.412Z,101543.67
2018-12-31T23:14:48.912Z,101543.89
2018-12-31T23:20:49.081Z,101534.96
2018-12-31T23:26:07.562Z,101529.29
2018-12-31T23:36:58.317Z,101529.30
2018-12-31T23:42:16.862Z,101511.41
2018-12-31T23:47:35.345Z,101505.17
2018-12-31T23:52:53.938Z,101503.84
2018-12-31T23:58:12.481Z,101504.62
